Time;durP1;ratioP1;P1;durP2;ratioP2;P2;SDS_P1;SDS_P2;PMS_P1;PMS_P2;Temp;Humidity;BMP_temperature;BMP_pressure;BME280_temperature;BME280_humidity;BME280_pressure;Samples;Min_cycle;Max_cycle;Signal;HPM_P1;HPM_P2
2022/04/13 00:01:10;;;;;;;;;0.67;0.00;;;;;23.62;63.65;100951.34;5027988;28;52832;-61
2022/04/13 00:03:36;;;;;;;;;0.00;0.00;;;;;23.60;63.68;100955.94;5034198;28;59309;-63
2022/04/13 00:06:02;;;;;;;;;0.00;0.00;;;;;23.61;63.82;100955.88;5033014;28;45590;-60
2022/04/13 00:08:27;;;;;;;;;0.00;0.00;;;;;23.60;63.75;100955.94;5026934;28;49077;-61
2022/04/13 00:10:55;;;;;;;;;1.00;1.00;;;;;23.60;63.69;100962.19;5033897;28;45465;-61
2022/04/13 00:13:21;;;;;;;;;0.00;0.00;;;;;23.60;63.90;100966.72;5034119;28;61423;-61
2022/04/13 00:15:47;;;;;;;;;0.67;0.00;;;;;23.61;64.00;100971.16;5034579;28;60732;-60
2022/04/13 00:18:12;;;;;;;;;0.00;0.00;;;;;23.62;64.00;100975.59;5029560;28;46860;-61
2022/04/13 00:20:37;;;;;;;;;0.00;0.00;;;;;23.61;64.08;100966.66;5021448;28;54577;-62
2022/04/13 00:23:03;;;;;;;;;0.33;0.33;;;;;23.63;64.07;100969.31;5036246;28;45623;-60
2022/04/13 00:25:29;;;;;;;;;0.00;0.00;;;;;23.63;64.12;100966.59;5035142;28;45347;-61
2022/04/13 00:27:55;;;;;;;;;1.00;1.00;;;;;23.63;63.79;100970.19;5023285;28;45375;-62
2022/04/13 00:30:21;;;;;;;;;2.00;0.00;;;;;23.63;64.21;100980.09;5012384;28;45485;-61
2022/04/13 00:32:46;;;;;;;;;0.67;0.67;;;;;23.62;64.00;100970.22;5025774;28;46771;-61
2022/04/13 00:35:12;;;;;;;;;0.33;0.33;;;;;23.62;64.29;100971.09;5016337;28;45337;-61
2022/04/13 00:37:38;;;;;;;;;0.33;0.33;;;;;23.64;64.09;100984.53;5031531;28;45293;-61
2022/04/13 00:40:06;;;;;;;;;0.67;0.00;;;;;23.64;64.46;100990.78;5037847;28;45486;-61
2022/04/13 00:42:32;;;;;;;;;2.00;1.00;;;;;23.64;64.52;100990.78;5030068;28;46644;-61
2022/04/13 00:44:57;;;;;;;;;2.00;0.00;;;;;23.64;64.30;100987.22;5032646;28;45280;-63
2022/04/13 00:47:25;;;;;;;;;1.00;1.00;;;;;23.64;64.35;100988.09;5027736;28;45670;-61
2022/04/13 00:49:50;;;;;;;;;1.00;0.00;;;;;23.65;64.51;100983.59;5036825;28;45349;-61
2022/04/13 00:52:18;;;;;;;;;2.00;1.00;;;;;23.63;64.60;100970.19;5031396;28;57923;-61
2022/04/13 00:54:47;;;;;;;;;2.00;1.00;;;;;23.65;64.36;100983.59;5016859;28;45741;-60
2022/04/13 00:57:16;;;;;;;;;0.00;0.00;;;;;23.64;64.50;100973.75;5019803;28;45527;-61
2022/04/13 00:59:45;;;;;;;;;2.00;0.00;;;;;23.66;64.18;100982.69;5019268;28;45577;-62
2022/04/13 01:02:12;;;;;;;;;1.00;0.00;;;;;23.66;64.54;100975.47;5037630;28;46221;-61
2022/04/13 01:04:38;;;;;;;;;0.00;0.00;;;;;23.65;64.54;100962.03;5029729;28;45383;-61
2022/04/13 01:07:08;;;;;;;;;0.67;0.00;;;;;23.64;64.58;100953.06;5031052;28;45450;-62
2022/04/13 01:09:37;;;;;;;;;0.67;0.00;;;;;23.67;64.57;100957.47;5025162;28;45479;-60
2022/04/13 01:12:03;;;;;;;;;0.00;0.00;;;;;23.63;64.65;100953.13;5022674;28;46907;-60
2022/04/13 01:14:29;;;;;;;;;1.00;1.00;;;;;23.66;64.69;100967.38;5037984;28;46162;-61
2022/04/13 01:16:55;;;;;;;;;0.00;0.00;;;;;23.66;64.97;100967.38;5028416;28;45226;-62
2022/04/13 01:19:20;;;;;;;;;0.00;0.00;;;;;23.65;64.62;100967.41;5037417;28;51487;-62
2022/04/13 01:21:53;;;;;;;;;3.00;0.00;;;;;23.67;64.93;100973.63;5016602;28;47201;-62
2022/04/13 01:24:20;;;;;;;;;1.00;1.00;;;;;23.67;64.92;100971.81;5027801;28;45630;-62
2022/04/13 01:26:47;;;;;;;;;0.00;0.00;;;;;23.66;64.79;100975.47;5034650;28;45535;-61
2022/04/13 01:29:12;;;;;;;;;0.33;0.33;;;;;23.65;64.77;100976.41;5016392;28;46326;-61
2022/04/13 01:31:41;;;;;;;;;1.00;1.00;;;;;23.66;64.71;100979.97;5027870;28;47300;-62
2022/04/13 01:34:07;;;;;;;;;0.00;0.00;;;;;23.63;64.72;100989.06;5016975;28;45497;-61
2022/04/13 01:36:33;;;;;;;;;1.00;1.00;;;;;23.63;64.80;100989.06;5037245;28;45546;-62
2022/04/13 01:39:05;;;;;;;;;0.00;0.00;;;;;23.63;64.93;100988.19;5023476;28;45367;-62
2022/04/13 01:41:30;;;;;;;;;2.00;0.33;;;;;23.64;64.97;100993.50;5027507;28;46254;-62
2022/04/13 01:43:59;;;;;;;;;0.00;0.00;;;;;23.62;64.94;100989.09;5030563;28;45318;-62
2022/04/13 01:46:24;;;;;;;;;0.00;0.00;;;;;23.63;65.21;100990.88;5035186;28;45523;-61
2022/04/13 01:48:50;;;;;;;;;2.00;0.00;;;;;23.63;65.02;100997.13;5029162;28;51053;-60
2022/04/13 01:51:17;;;;;;;;;1.00;1.00;;;;;23.62;65.16;101005.25;5006826;28;46386;-61
2022/04/13 01:53:43;;;;;;;;;1.00;1.00;;;;;23.63;65.10;100993.56;5037011;28;45222;-60
2022/04/13 01:56:08;;;;;;;;;0.00;0.00;;;;;23.61;65.30;100996.31;5022719;28;46723;-62
2022/04/13 01:58:33;;;;;;;;;0.67;0.00;;;;;23.62;65.10;101006.13;5028217;28;54669;-61
2022/04/13 02:00:59;;;;;;;;;2.00;0.33;;;;;23.63;65.16;100998.97;5035239;28;45627;-60
2022/04/13 02:03:25;;;;;;;;;1.33;0.00;;;;;23.61;64.76;101008.91;5032840;28;58471;-62
2022/04/13 02:05:52;;;;;;;;;2.67;0.00;;;;;23.60;65.12;101002.63;5030605;28;45340;-62
2022/04/13 02:08:18;;;;;;;;;1.00;1.00;;;;;23.61;65.37;101008.91;5036946;28;45304;-61
2022/04/13 02:10:43;;;;;;;;;1.00;1.00;;;;;23.59;65.35;101011.63;5028866;28;46318;-61
2022/04/13 02:13:09;;;;;;;;;2.00;0.67;;;;;23.61;65.12;101006.22;5029473;28;56343;-61
2022/04/13 02:15:34;;;;;;;;;1.00;1.00;;;;;23.61;65.53;101020.56;5030894;28;45493;-62
2022/04/13 02:17:59;;;;;;;;;0.00;0.00;;;;;23.58;65.45;101017.97;5029141;28;45509;-61
2022/04/13 02:20:25;;;;;;;;;2.00;0.33;;;;;23.61;65.41;101019.69;5030080;28;45535;-62
2022/04/13 02:22:50;;;;;;;;;1.00;1.00;;;;;23.59;65.57;101017.03;5028481;28;45369;-61
2022/04/13 02:25:16;;;;;;;;;1.00;1.00;;;;;23.59;65.56;101022.41;5031257;28;55373;-61
2022/04/13 02:27:43;;;;;;;;;1.00;0.00;;;;;23.61;65.40;101030.47;5026548;28;45460;-60
2022/04/13 02:30:09;;;;;;;;;0.00;0.00;;;;;23.61;65.68;101030.47;5009782;28;46293;-61
2022/04/13 02:32:40;;;;;;;;;0.00;0.00;;;;;23.59;65.57;101026.94;5019093;28;45560;-61
2022/04/13 02:35:06;;;;;;;;;0.00;0.00;;;;;23.60;65.52;101028.72;5018369;28;45472;-61
2022/04/13 02:37:32;;;;;;;;;0.00;0.00;;;;;23.59;65.63;101026.94;5024095;28;45539;-61
2022/04/13 02:39:57;;;;;;;;;3.33;1.00;;;;;23.59;65.82;101038.59;5027378;28;55563;-61
2022/04/13 02:42:22;;;;;;;;;1.00;1.00;;;;;23.59;66.16;101040.41;5149434;22;58682;-60
2022/04/13 02:44:49;;;;;;;;;1.00;1.00;;;;;23.60;66.20;101036.81;5039279;28;48176;-61
2022/04/13 02:47:14;;;;;;;;;0.00;0.00;;;;;23.58;66.32;101033.28;5031250;28;45408;-62
2022/04/13 02:49:40;;;;;;;;;0.33;0.33;;;;;23.60;66.44;101029.59;5036461;28;56897;-60
2022/04/13 02:52:06;;;;;;;;;1.00;1.00;;;;;23.60;66.33;101040.38;5028683;28;45360;-62
2022/04/13 02:54:31;;;;;;;;;1.67;1.00;;;;;23.59;66.67;101033.22;5035889;28;45618;-61
2022/04/13 02:56:57;;;;;;;;;2.00;1.00;;;;;23.61;66.60;101031.34;5035555;28;45536;-61
2022/04/13 02:59:22;;;;;;;;;3.00;1.00;;;;;23.63;67.09;101026.78;5038648;28;61989;-62
2022/04/13 03:01:49;;;;;;;;;1.00;1.00;;;;;23.63;67.14;101025.91;5035240;28;59034;-62
2022/04/13 03:04:16;;;;;;;;;0.00;0.00;;;;;23.66;67.32;101024.00;5037170;28;47155;-61
2022/04/13 03:06:41;;;;;;;;;1.00;1.00;;;;;23.69;67.04;101022.97;5036865;28;45617;-62
2022/04/13 03:09:07;;;;;;;;;1.00;1.00;;;;;23.68;67.38;101023.91;5036342;28;46392;-62
2022/04/13 03:11:32;;;;;;;;;3.33;0.00;;;;;23.70;67.42;101024.72;5035806;28;59357;-61
2022/04/13 03:13:58;;;;;;;;;1.00;1.00;;;;;23.71;67.22;101026.50;5036942;28;45344;-62
2022/04/13 03:16:23;;;;;;;;;0.00;0.00;;;;;23.70;67.01;101024.72;5030210;28;52841;-61
2022/04/13 03:18:48;;;;;;;;;1.00;1.00;;;;;23.70;67.49;101033.72;5035593;28;62371;-61
2022/04/13 03:21:14;;;;;;;;;1.00;1.00;;;;;23.72;67.51;101047.13;5036628;28;45285;-60
2022/04/13 03:23:40;;;;;;;;;2.00;1.00;;;;;23.73;67.47;101057.84;5031737;28;46182;-61
2022/04/13 03:26:05;;;;;;;;;1.00;1.00;;;;;23.72;67.49;101052.53;5036825;28;45378;-61
2022/04/13 03:28:30;;;;;;;;;0.00;0.00;;;;;23.74;67.64;101062.28;5011914;28;46478;-63
2022/04/13 03:30:56;;;;;;;;;1.00;1.00;;;;;23.76;67.91;101064.94;5033684;28;53308;-60
2022/04/13 03:33:22;;;;;;;;;0.00;0.00;;;;;23.75;67.54;101057.78;5032195;28;45479;-61
2022/04/13 03:35:47;;;;;;;;;1.33;0.67;;;;;23.77;67.59;101066.69;5036569;28;45211;-62
2022/04/13 03:38:12;;;;;;;;;2.00;2.00;;;;;23.76;67.82;101062.25;5034388;28;64736;-61
2022/04/13 03:40:38;;;;;;;;;1.00;1.00;;;;;23.77;67.99;101077.47;5035761;28;57482;-61
2022/04/13 03:43:03;;;;;;;;;2.33;1.00;;;;;23.74;68.09;101069.50;5035298;28;54264;-59
2022/04/13 03:45:28;;;;;;;;;0.67;0.67;;;;;23.75;67.87;101073.94;5030254;28;45154;-62
2022/04/13 03:47:54;;;;;;;;;2.33;1.67;;;;;23.76;67.69;101081.13;5030883;28;46440;-60
2022/04/13 03:50:19;;;;;;;;;2.00;1.00;;;;;23.76;67.94;101082.00;5035466;28;59438;-61
2022/04/13 03:52:44;;;;;;;;;0.00;0.00;;;;;23.73;68.08;101073.16;5035662;28;51429;-62
2022/04/13 03:55:11;;;;;;;;;0.67;0.67;;;;;23.74;68.05;101077.59;5031070;28;45122;-61
2022/04/13 03:57:36;;;;;;;;;1.00;1.00;;;;;23.75;68.03;101082.91;5029154;28;46902;-61
2022/04/13 04:00:06;;;;;;;;;1.00;1.00;;;;;23.75;68.09;101084.75;5030687;28;45577;-61
2022/04/13 04:02:33;;;;;;;;;1.00;1.00;;;;;23.74;68.28;101089.25;5035463;28;45446;-61
2022/04/13 04:05:01;;;;;;;;;0.00;0.00;;;;;23.74;68.07;101091.06;5011703;28;45507;-61
2022/04/13 04:07:26;;;;;;;;;1.00;1.00;;;;;23.74;68.40;101085.69;5035995;28;45560;-61
2022/04/13 04:09:52;;;;;;;;;1.00;1.00;;;;;23.73;68.35;101083.94;5035149;28;59521;-61
2022/04/13 04:12:17;;;;;;;;;1.00;1.00;;;;;23.74;68.32;101091.06;5031932;28;45387;-61
2022/04/13 04:14:42;;;;;;;;;2.00;1.00;;;;;23.73;68.29;101089.31;5029691;28;52977;-61
2022/04/13 04:17:08;;;;;;;;;1.00;1.00;;;;;23.74;68.54;101091.06;5034636;28;61828;-61
2022/04/13 04:19:34;;;;;;;;;1.33;1.33;;;;;23.74;68.63;101093.78;5030670;28;50090;-61
2022/04/13 04:22:00;;;;;;;;;1.00;1.00;;;;;23.73;68.41;101100.97;5033097;28;45507;-61
2022/04/13 04:24:26;;;;;;;;;3.00;1.00;;;;;23.72;68.82;101095.66;5030035;28;45393;-62
2022/04/13 04:26:51;;;;;;;;;1.00;1.00;;;;;23.71;68.95;101102.88;5034125;28;46922;-61
2022/04/13 04:29:17;;;;;;;;;1.00;1.00;;;;;23.72;68.94;101101.06;5028182;28;45419;-61
2022/04/13 04:31:51;;;;;;;;;1.00;1.00;;;;;23.74;68.85;101118.03;5030955;28;56187;-61
2022/04/13 04:34:20;;;;;;;;;0.67;0.67;;;;;23.71;68.90;101102.88;5031009;28;45436;-61
2022/04/13 04:36:46;;;;;;;;;3.00;1.00;;;;;23.71;69.00;101099.31;5034067;28;47011;-63
2022/04/13 04:39:12;;;;;;;;;1.67;1.67;;;;;23.71;68.93;101110.97;5031576;28;45547;-66
2022/04/13 04:41:39;;;;;;;;;3.00;1.00;;;;;23.72;68.79;101112.72;5033611;28;46655;-65
2022/04/13 04:44:04;;;;;;;;;0.00;0.00;;;;;23.71;68.87;101119.06;5022885;28;45554;-68
2022/04/13 04:46:30;;;;;;;;;1.00;1.00;;;;;23.72;68.88;101122.63;5034800;28;45542;-68
2022/04/13 04:48:55;;;;;;;;;1.00;1.00;;;;;23.69;69.17;101120.91;5034845;28;49911;-65
2022/04/13 04:51:21;;;;;;;;;2.00;1.00;;;;;23.68;69.25;101115.59;5031367;28;45601;-65
2022/04/13 04:53:49;;;;;;;;;0.33;0.33;;;;;23.71;69.36;101129.84;5033768;28;45397;-65
2022/04/13 04:56:15;;;;;;;;;1.33;1.33;;;;;23.70;69.11;101120.00;5034769;28;45197;-66
2022/04/13 04:58:40;;;;;;;;;1.33;0.67;;;;;23.68;69.21;101115.59;5034707;28;45188;-64
2022/04/13 05:01:06;;;;;;;;;1.00;1.00;;;;;23.68;69.39;101119.16;5007378;28;51803;-63
2022/04/13 05:03:32;;;;;;;;;4.00;4.00;;;;;23.67;70.08;101116.53;5033169;28;45690;-66
2022/04/13 05:05:57;;;;;;;;;5.00;4.00;;;;;23.50;71.25;101114.47;5028353;28;45569;-64
2022/04/13 05:08:23;;;;;;;;;5.33;4.33;;;;;23.24;72.33;101107.34;5023567;28;45373;-64
2022/04/13 05:10:51;;;;;;;;;4.67;4.67;;;;;22.93;73.65;101119.22;5030241;28;45304;-65
2022/04/13 05:13:17;;;;;;;;;6.00;4.00;;;;;22.62;75.19;101123.88;5030189;28;45490;-65
2022/04/13 05:15:43;;;;;;;;;5.00;3.33;;;;;22.32;76.50;101132.06;5030941;28;47514;-66
2022/04/13 05:18:08;;;;;;;;;5.00;3.33;;;;;22.02;77.98;101130.34;5028457;28;45399;-63
2022/04/13 05:20:33;;;;;;;;;6.00;5.00;;;;;21.76;79.94;101129.31;5032882;28;57171;-67
2022/04/13 05:22:59;;;;;;;;;4.00;4.00;;;;;21.56;81.16;101137.09;5032796;28;52475;-66
2022/04/13 05:25:24;;;;;;;;;7.00;4.67;;;;;21.33;82.13;101135.09;5036116;28;46043;-64
2022/04/13 05:27:49;;;;;;;;;6.00;4.33;;;;;21.10;83.57;101141.97;5030981;28;46053;-65
2022/04/13 05:30:15;;;;;;;;;8.00;4.33;;;;;20.97;84.55;101147.69;5030789;28;45503;-65
2022/04/13 05:32:53;;;;;;;;;4.00;4.00;;;;;20.83;86.10;101143.59;5033277;28;45224;-65
2022/04/13 05:35:18;;;;;;;;;6.00;5.00;;;;;20.68;87.93;101141.31;5031490;28;46833;-66
2022/04/13 05:37:44;;;;;;;;;4.00;4.00;;;;;20.54;89.09;101138.09;5036612;28;45795;-65
2022/04/13 05:40:10;;;;;;;;;6.67;5.00;;;;;20.45;89.46;101143.63;5032231;28;45504;-64
2022/04/13 05:42:35;;;;;;;;;6.00;6.00;;;;;20.31;91.10;101141.31;5037223;28;45654;-65
2022/04/13 05:45:00;;;;;;;;;6.00;4.33;;;;;20.23;91.92;101148.66;5036870;28;46282;-65
2022/04/13 05:47:26;;;;;;;;;5.00;5.00;;;;;20.09;93.07;101138.25;5035174;28;60719;-65
2022/04/13 05:49:51;;;;;;;;;5.00;5.00;;;;;20.03;93.88;101149.13;5029321;28;45846;-66
2022/04/13 05:52:17;;;;;;;;;6.67;5.00;;;;;19.92;94.81;101149.38;5032959;28;45618;-66
2022/04/13 05:54:42;;;;;;;;;4.00;4.00;;;;;19.83;96.43;101157.63;5028841;28;46349;-68
2022/04/13 05:57:08;;;;;;;;;7.67;6.67;;;;;19.76;96.82;101158.63;5034749;28;46662;-69
2022/04/13 05:59:34;;;;;;;;;7.00;6.00;;;;;19.69;97.68;101160.56;5031680;28;45283;-68
2022/04/13 06:02:00;;;;;;;;;6.33;6.33;;;;;19.63;99.26;101171.44;5033396;28;45310;-69
2022/04/13 06:04:25;;;;;;;;;7.00;6.00;;;;;19.57;99.81;101171.53;5033243;28;47801;-69
2022/04/13 06:06:51;;;;;;;;;8.00;7.00;;;;;19.53;100.00;101173.38;5033822;28;45507;-69
2022/04/13 06:09:16;;;;;;;;;8.00;8.00;;;;;19.47;100.00;101186.03;5035441;28;45526;-69
2022/04/13 06:11:42;;;;;;;;;7.00;7.00;;;;;19.48;100.00;101198.50;5035354;28;45340;-69
2022/04/13 06:14:07;;;;;;;;;7.33;6.33;;;;;19.44;100.00;101199.47;5016570;28;61822;-70
2022/04/13 06:16:32;;;;;;;;;12.00;6.67;;;;;19.37;100.00;101193.34;5038062;28;45570;-68
2022/04/13 06:18:58;;;;;;;;;12.33;7.67;;;;;19.37;100.00;101199.59;5033557;28;55801;-69
2022/04/13 06:21:23;;;;;;;;;12.00;7.00;;;;;19.32;100.00;101195.22;5031061;28;45848;-66
2022/04/13 06:23:49;;;;;;;;;6.00;5.00;;;;;19.37;100.00;101198.69;5033546;28;60333;-66
2022/04/13 06:26:14;;;;;;;;;6.33;4.33;;;;;19.49;100.00;101208.28;5032571;28;45538;-67
2022/04/13 06:28:40;;;;;;;;;4.00;4.00;;;;;19.64;100.00;101197.31;5025126;28;45529;-66
2022/04/13 06:31:05;;;;;;;;;4.67;3.33;;;;;19.83;100.00;101203.16;5021900;28;46442;-63
2022/04/13 06:33:31;;;;;;;;;5.00;3.00;;;;;20.03;100.00;101216.16;5024136;28;56734;-62
2022/04/13 06:35:58;;;;;;;;;3.00;3.00;;;;;20.20;100.00;101218.44;5022137;28;45495;-62
2022/04/13 06:38:23;;;;;;;;;4.67;3.00;;;;;20.36;100.00;101218.06;5028201;28;45579;-63
2022/04/13 06:40:48;;;;;;;;;4.67;3.00;;;;;20.51;100.00;101221.34;5024993;28;45549;-62
2022/04/13 06:43:14;;;;;;;;;4.00;3.00;;;;;20.65;99.78;101229.91;5013879;28;45837;-62
2022/04/13 06:45:40;;;;;;;;;4.33;3.00;;;;;20.76;99.17;101238.59;5018773;28;45230;-61
2022/04/13 06:48:07;;;;;;;;;4.00;3.00;;;;;20.96;98.27;101247.97;5029557;28;45487;-61
2022/04/13 06:50:33;;;;;;;;;4.00;3.00;;;;;21.07;97.84;101248.56;5021564;28;46279;-61
2022/04/13 06:52:59;;;;;;;;;2.67;2.00;;;;;21.17;97.26;101258.16;5032172;28;47393;-61
2022/04/13 06:55:24;;;;;;;;;4.00;3.00;;;;;21.27;96.59;101259.66;5030255;28;45534;-62
2022/04/13 06:57:50;;;;;;;;;4.00;3.00;;;;;21.38;96.20;101262.97;5032273;28;45471;-62
2022/04/13 07:00:16;;;;;;;;;4.00;4.00;;;;;21.47;95.14;101271.75;5028816;28;45522;-62
2022/04/13 07:02:42;;;;;;;;;5.00;3.33;;;;;21.56;95.26;101269.66;5030653;28;46931;-61
2022/04/13 07:05:08;;;;;;;;;5.00;3.67;;;;;21.65;94.38;101282.84;5031198;28;45305;-61
2022/04/13 07:07:33;;;;;;;;;6.67;3.00;;;;;21.75;93.42;101288.84;5016550;28;45425;-62
2022/04/13 07:09:58;;;;;;;;;4.00;3.00;;;;;21.82;93.13;101290.44;5030524;28;45343;-62
2022/04/13 07:12:24;;;;;;;;;2.00;2.00;;;;;21.91;92.56;101295.56;5030343;28;47479;-62
2022/04/13 07:14:50;;;;;;;;;4.00;2.33;;;;;21.97;92.30;101297.19;5029030;28;45448;-62
2022/04/13 07:17:15;;;;;;;;;6.00;3.00;;;;;22.04;92.13;101300.56;5029184;28;45484;-62
2022/04/13 07:19:40;;;;;;;;;3.00;3.00;;;;;22.11;91.63;101313.84;5033328;28;46235;-63
2022/04/13 07:22:06;;;;;;;;;4.00;3.00;;;;;22.15;91.65;101306.56;5032441;28;46600;-62
2022/04/13 07:24:31;;;;;;;;;2.33;2.00;;;;;22.21;90.96;101315.34;5031556;28;45385;-63
2022/04/13 07:26:57;;;;;;;;;4.00;2.67;;;;;22.26;90.67;101311.63;5017775;28;45491;-62
2022/04/13 07:29:22;;;;;;;;;3.00;2.00;;;;;22.30;90.25;101314.19;5033315;28;45658;-62
2022/04/13 07:31:47;;;;;;;;;3.33;3.00;;;;;22.37;89.71;101320.25;5031412;28;45682;-62
2022/04/13 07:34:13;;;;;;;;;2.67;2.67;;;;;22.40;89.57;101318.34;5032240;28;45382;-63
2022/04/13 07:36:39;;;;;;;;;3.33;3.33;;;;;22.44;89.35;101320.03;5031213;28;45510;-64
2022/04/13 07:39:04;;;;;;;;;2.00;2.00;;;;;22.48;88.94;101323.53;5032954;28;46784;-62
2022/04/13 07:41:30;;;;;;;;;3.00;3.00;;;;;22.52;88.68;101325.16;5033089;28;46522;-64
2022/04/13 07:43:57;;;;;;;;;3.00;2.00;;;;;22.56;88.71;101336.72;5032651;28;45564;-62
2022/04/13 07:46:25;;;;;;;;;4.33;3.00;;;;;22.57;88.38;101327.72;5030436;28;45459;-62
2022/04/13 07:48:51;;;;;;;;;3.00;3.00;;;;;22.61;87.88;101326.69;5032922;28;45570;-62
2022/04/13 07:51:16;;;;;;;;;3.33;3.00;;;;;22.63;88.06;101330.22;5027926;28;56026;-62
2022/04/13 07:53:42;;;;;;;;;2.00;2.00;;;;;22.64;87.95;101321.25;5031376;28;45432;-62
2022/04/13 07:56:07;;;;;;;;;3.00;3.00;;;;;22.65;87.52;101320.31;5032008;28;45607;-62
2022/04/13 07:58:33;;;;;;;;;3.00;3.00;;;;;22.68;87.34;101325.56;5033895;28;45479;-62
2022/04/13 08:00:58;;;;;;;;;2.00;2.00;;;;;22.70;86.77;101323.72;5032767;28;46535;-62
2022/04/13 08:03:24;;;;;;;;;3.00;2.67;;;;;22.74;86.65;101328.06;5032135;28;45477;-63
2022/04/13 08:05:49;;;;;;;;;5.67;3.33;;;;;22.74;86.65;101320.91;5027030;28;45491;-62
2022/04/13 08:08:14;;;;;;;;;2.67;2.67;;;;;22.77;86.30;101325.28;5033205;28;45535;-63
2022/04/13 08:10:40;;;;;;;;;4.67;3.00;;;;;22.80;86.10;101327.00;5024655;28;48441;-63
2022/04/13 08:13:05;;;;;;;;;4.00;4.00;;;;;22.82;86.05;101327.84;5033426;28;45424;-61
2022/04/13 08:15:30;;;;;;;;;4.33;3.00;;;;;22.83;86.02;101330.47;5032521;28;45851;-62
2022/04/13 08:17:56;;;;;;;;;6.33;3.67;;;;;22.83;85.92;101330.47;5033766;28;45393;-62
2022/04/13 08:20:21;;;;;;;;;5.00;2.67;;;;;22.87;85.79;101340.22;5029448;28;47295;-62
2022/04/13 08:22:47;;;;;;;;;7.33;3.67;;;;;22.87;85.28;101336.66;5034269;28;45511;-62
2022/04/13 08:25:13;;;;;;;;;3.00;3.00;;;;;22.91;85.67;101344.63;5026332;28;45275;-61
2022/04/13 08:27:39;;;;;;;;;7.00;4.00;;;;;22.92;85.16;101341.00;5009841;28;45623;-62
2022/04/13 08:30:05;;;;;;;;;4.33;2.33;;;;;22.93;85.50;101344.56;5028266;28;47388;-62
2022/04/13 08:32:30;;;;;;;;;4.67;4.00;;;;;22.93;85.37;101341.88;5031499;28;45459;-62
2022/04/13 08:34:56;;;;;;;;;3.00;3.00;;;;;22.96;84.63;101344.47;5034557;28;45459;-63
2022/04/13 08:37:22;;;;;;;;;4.67;3.00;;;;;22.94;84.59;101347.19;5031291;28;45514;-62
2022/04/13 08:39:48;;;;;;;;;3.00;3.00;;;;;22.97;84.38;101347.13;5027409;28;45583;-62
2022/04/13 08:42:14;;;;;;;;;2.67;2.67;;;;;23.00;84.57;101355.09;5029022;28;45554;-61
2022/04/13 08:44:50;;;;;;;;;3.00;3.00;;;;;23.02;84.21;101351.47;5027474;28;45578;-63
2022/04/13 08:47:23;;;;;;;;;4.00;4.00;;;;;23.01;84.08;101361.38;5032106;28;46097;-63
2022/04/13 08:49:50;;;;;;;;;3.00;3.00;;;;;23.01;84.41;101369.47;5026458;28;45637;-63
2022/04/13 08:52:28;;;;;;;;;5.00;3.33;;;;;23.03;84.47;101369.41;5029210;28;45574;-61
2022/04/13 08:55:05;;;;;;;;;3.00;3.00;;;;;23.05;84.08;101378.31;5032015;28;45530;-62
2022/04/13 08:57:36;;;;;;;;;7.33;5.00;;;;;23.03;83.56;101375.66;5028143;28;45319;-64
2022/04/13 09:00:13;;;;;;;;;3.00;3.00;;;;;23.06;83.69;101385.44;5034670;28;46368;-62
2022/04/13 09:02:47;;;;;;;;;4.67;4.00;;;;;23.07;83.71;101385.41;5031563;28;45470;-63
2022/04/13 09:05:24;;;;;;;;;6.00;3.33;;;;;23.05;84.00;101387.25;5036958;28;45409;-62
2022/04/13 09:07:58;;;;;;;;;4.67;4.00;;;;;23.07;83.30;101385.41;5037575;28;45372;-62
2022/04/13 09:10:23;;;;;;;;;3.00;3.00;;;;;23.06;83.98;101382.75;5034690;28;47465;-63
2022/04/13 09:12:50;;;;;;;;;2.67;2.67;;;;;23.08;83.80;101381.78;5028101;28;45458;-64
2022/04/13 09:15:16;;;;;;;;;3.00;3.00;;;;;23.11;83.78;101391.56;5037093;28;45626;-63
2022/04/13 09:17:42;;;;;;;;;4.00;2.00;;;;;23.12;83.29;101393.34;5017246;28;45674;-63
2022/04/13 09:20:08;;;;;;;;;4.00;4.00;;;;;23.12;83.68;101402.31;4995718;28;47420;-63
2022/04/13 09:22:34;;;;;;;;;3.33;3.33;;;;;23.12;83.55;101399.63;5016043;28;45540;-64
2022/04/13 09:25:00;;;;;;;;;3.33;3.33;;;;;23.14;83.17;101405.84;5016787;28;45360;-62
2022/04/13 09:27:26;;;;;;;;;4.00;3.00;;;;;23.16;83.52;101411.16;5034867;28;45615;-64
2022/04/13 09:29:52;;;;;;;;;4.00;4.00;;;;;23.16;83.08;101414.72;5032521;28;45760;-62
2022/04/13 09:32:18;;;;;;;;;3.33;3.00;;;;;23.17;82.98;101419.22;5031648;28;45458;-63
2022/04/13 09:34:44;;;;;;;;;5.00;4.00;;;;;23.18;83.28;101412.03;5033894;28;45330;-62
2022/04/13 09:37:10;;;;;;;;;5.00;4.00;;;;;23.20;82.79;101423.63;5017528;28;45533;-62
2022/04/13 09:39:36;;;;;;;;;4.67;4.67;;;;;23.21;83.12;101420.84;5032680;28;46566;-63
2022/04/13 09:42:02;;;;;;;;;4.33;4.00;;;;;23.21;82.97;101423.56;5033534;28;45828;-63
2022/04/13 09:44:30;;;;;;;;;3.33;3.33;;;;;23.22;82.75;101419.03;5032708;28;45567;-62
2022/04/13 09:47:09;;;;;;;;;5.00;4.00;;;;;23.24;82.95;101420.78;5030885;28;45407;-63
2022/04/13 09:49:35;;;;;;;;;4.33;4.00;;;;;23.25;82.93;101421.66;5033520;28;47749;-62
2022/04/13 09:52:01;;;;;;;;;5.00;3.00;;;;;23.27;82.72;101428.75;5032382;28;45729;-62
2022/04/13 09:54:27;;;;;;;;;3.67;3.33;;;;;23.28;82.72;101421.56;5036488;28;45601;-62
2022/04/13 09:56:52;;;;;;;;;4.67;4.00;;;;;23.30;82.33;101422.38;5035028;28;45530;-62
2022/04/13 09:59:44;;;;;;;;;4.00;3.00;;;;;23.31;82.38;101426.84;5028266;28;45747;-63
2022/04/13 10:02:09;;;;;;;;;4.00;2.00;;;;;23.32;82.37;101425.91;5026389;28;45215;-62
2022/04/13 10:04:36;;;;;;;;;3.00;3.00;;;;;23.31;82.55;101421.44;5016245;28;45360;-62
2022/04/13 10:07:17;;;;;;;;;3.00;3.00;;;;;23.35;82.29;101431.22;5017732;28;45842;-63
2022/04/13 10:09:43;;;;;;;;;6.33;4.00;;;;;23.35;82.33;101431.22;5034788;28;47612;-62
2022/04/13 10:12:09;;;;;;;;;3.00;3.00;;;;;23.37;82.38;101436.53;5037344;28;45388;-62
2022/04/13 10:14:34;;;;;;;;;4.00;4.00;;;;;23.38;81.97;101435.59;5037732;28;45329;-61
2022/04/13 10:17:07;;;;;;;;;6.33;3.00;;;;;23.40;82.25;101433.75;5032975;28;45438;-61
2022/04/13 10:19:32;;;;;;;;;4.67;3.00;;;;;23.33;82.17;101425.00;5034861;28;46484;-63
2022/04/13 10:21:59;;;;;;;;;3.67;3.00;;;;;23.39;81.77;101443.66;5013060;28;45522;-63
2022/04/13 10:24:26;;;;;;;;;5.67;2.67;;;;;23.38;81.97;101436.47;5037157;28;45338;-62
2022/04/13 10:27:07;;;;;;;;;5.00;3.00;;;;;23.40;82.03;101434.63;5037273;28;45576;-62
2022/04/13 10:29:33;;;;;;;;;4.00;3.00;;;;;23.39;81.91;101442.78;5036975;28;45455;-62
2022/04/13 10:32:12;;;;;;;;;6.00;4.00;;;;;23.41;81.72;101441.78;5039761;28;45260;-63
2022/04/13 10:34:45;;;;;;;;;3.33;3.33;;;;;23.42;81.73;101448.06;5035523;28;45357;-64
2022/04/13 10:37:16;;;;;;;;;4.00;2.67;;;;;23.42;81.93;101442.66;5037488;28;45586;-62
2022/04/13 10:39:42;;;;;;;;;3.00;3.00;;;;;23.42;81.59;101440.84;5036998;28;45822;-62
2022/04/13 10:42:09;;;;;;;;;3.67;2.33;;;;;23.40;81.69;101447.22;5037233;28;45454;-61
2022/04/13 10:44:41;;;;;;;;;3.00;3.00;;;;;23.42;81.58;101448.94;5032582;28;45472;-62
2022/04/13 10:47:08;;;;;;;;;3.00;3.00;;;;;23.41;81.55;101449.88;5028926;28;45419;-62
2022/04/13 10:49:53;;;;;;;;;2.67;2.67;;;;;23.42;81.64;101442.66;5034315;28;47125;-63
2022/04/13 10:52:51;;;;;;;;;3.33;2.00;;;;;23.44;81.42;101449.78;5039436;28;45551;-62
2022/04/13 10:55:19;;;;;;;;;3.00;3.00;;;;;23.45;81.50;101450.66;4993603;28;45559;-63
2022/04/13 10:57:59;;;;;;;;;2.00;2.00;;;;;23.43;81.39;101448.00;5033941;28;45456;-64
2022/04/13 11:00:25;;;;;;;;;3.67;3.67;;;;;23.44;81.26;101446.22;5035910;28;46538;-62
2022/04/13 11:02:58;;;;;;;;;2.00;2.00;;;;;23.43;81.40;101444.41;5036939;28;45568;-64
2022/04/13 11:05:25;;;;;;;;;5.00;3.00;;;;;23.44;81.66;101457.00;5032424;28;45483;-60
2022/04/13 11:08:03;;;;;;;;;3.00;3.00;;;;;23.44;81.54;101448.91;5029549;28;45521;-60
2022/04/13 11:10:31;;;;;;;;;3.00;2.00;;;;;23.43;81.40;101448.00;5032850;28;47286;-62
2022/04/13 11:12:59;;;;;;;;;4.67;2.67;;;;;23.44;81.49;101440.81;5029138;28;45508;-62
2022/04/13 11:15:36;;;;;;;;;2.00;2.00;;;;;23.43;81.28;101444.41;5017316;28;45536;-62
2022/04/13 11:18:08;;;;;;;;;2.00;2.00;;;;;23.44;81.13;101439.00;5036297;28;45619;-60
2022/04/13 11:20:34;;;;;;;;;2.00;2.00;;;;;23.43;81.21;101442.59;5035422;28;47492;-61
2022/04/13 11:23:11;;;;;;;;;4.33;3.00;;;;;23.44;81.25;101446.22;5035950;28;45366;-61